createdAt,value
2023-03-06T00:00:17.750Z,511.00
2023-03-06T00:01:17.750Z,519.00
2023-03-06T00:02:17.754Z,518.00
2023-03-06T00:03:17.726Z,514.00
2023-03-06T00:54:53.384Z,500.00
2023-03-06T00:55:54.354Z,500.00
2023-03-06T00:56:54.368Z,500.00
2023-03-06T00:57:54.330Z,500.00
2023-03-06T00:58:54.315Z,500.00
2023-03-06T00:59:54.309Z,500.00
2023-03-06T01:00:54.334Z,450.00
2023-03-06T01:01:54.452Z,424.00
2023-03-06T01:02:54.276Z,411.00
2023-03-06T01:03:54.270Z,422.00
2023-03-06T01:04:54.263Z,444.00
2023-03-06T01:05:54.252Z,482.00
2023-03-06T01:06:54.241Z,501.00
2023-03-06T01:07:54.229Z,500.00
2023-03-06T01:08:54.233Z,502.00
2023-03-06T01:09:54.218Z,499.00
2023-03-06T01:10:54.227Z,502.00
2023-03-06T01:11:54.199Z,500.00
2023-03-06T01:12:54.184Z,500.00
2023-03-06T01:13:54.174Z,506.00
2023-03-06T01:14:54.169Z,500.00
2023-03-06T01:15:54.159Z,500.00
2023-03-06T01:16:54.148Z,508.00
2023-03-06T01:17:54.148Z,501.00
2023-03-06T01:18:54.126Z,503.00
2023-03-06T01:19:54.124Z,499.00
2023-03-06T01:20:54.108Z,500.00
2023-03-06T01:21:54.096Z,500.00
2023-03-06T01:22:54.091Z,505.00
2023-03-06T01:23:54.081Z,500.00
2023-03-06T01:24:54.072Z,504.00
2023-03-06T01:25:54.069Z,505.00
2023-03-06T01:26:54.079Z,506.00
2023-03-06T01:27:54.051Z,506.00
2023-03-06T01:28:54.036Z,502.00
2023-03-06T01:29:54.020Z,501.00
2023-03-06T01:30:54.027Z,509.00
2023-03-06T01:31:54.103Z,508.00
2023-03-06T01:32:54.655Z,510.00
2023-03-06T01:33:53.993Z,503.00
2023-03-06T01:34:54.029Z,505.00
2023-03-06T01:35:54.035Z,500.00
2023-03-06T01:36:53.963Z,508.00
2023-03-06T01:37:53.963Z,506.00
2023-03-06T01:38:53.954Z,507.00
2023-03-06T01:39:53.953Z,503.00
2023-03-06T01:40:53.927Z,501.00
2023-03-06T01:41:53.925Z,500.00
2023-03-06T01:42:53.939Z,511.00
2023-03-06T01:43:53.899Z,507.00
2023-03-06T01:44:53.894Z,506.00
2023-03-06T01:45:53.959Z,502.00
2023-03-06T01:46:53.876Z,509.00
2023-03-06T01:47:53.863Z,509.00
2023-03-06T01:48:53.857Z,506.00
2023-03-06T01:49:53.845Z,512.00
2023-03-06T01:50:53.844Z,510.00
2023-03-06T01:51:53.826Z,501.00
2023-03-06T01:52:53.817Z,506.00
2023-03-06T01:53:53.815Z,511.00
2023-03-06T01:54:53.802Z,501.00
2023-03-06T01:55:53.799Z,508.00
2023-03-06T01:56:53.789Z,509.00
2023-03-06T01:57:53.770Z,502.00
2023-03-06T01:58:53.789Z,505.00
2023-03-06T01:59:53.754Z,511.00
2023-03-06T02:00:53.812Z,509.00
2023-03-06T02:01:53.748Z,509.00
2023-03-06T02:02:53.747Z,504.00
2023-03-06T02:03:53.722Z,506.00
2023-03-06T02:04:53.705Z,505.00
2023-03-06T02:05:53.705Z,511.00
2023-03-06T02:06:53.749Z,504.00
2023-03-06T02:07:53.683Z,507.00
2023-03-06T02:08:53.674Z,512.00
2023-03-06T02:09:53.668Z,506.00
2023-03-06T02:10:53.654Z,508.00
2023-03-06T02:11:53.651Z,504.00
2023-03-06T02:12:53.649Z,506.00
2023-03-06T02:13:53.669Z,509.00
2023-03-06T02:14:53.654Z,512.00
2023-03-06T02:15:53.609Z,506.00
2023-03-06T02:16:53.605Z,506.00
2023-03-06T02:17:53.593Z,506.00
2023-03-06T02:18:53.583Z,506.00
2023-03-06T02:19:53.574Z,505.00
2023-03-06T02:20:53.562Z,508.00
2023-03-06T02:21:53.691Z,509.00
2023-03-06T02:22:53.545Z,512.00
2023-03-06T02:23:53.540Z,506.00
2023-03-06T02:24:53.525Z,502.00
2023-03-06T02:25:53.521Z,509.00
2023-03-06T02:26:53.506Z,510.00
2023-03-06T02:27:53.503Z,502.00
2023-03-06T02:28:54.187Z,510.00
2023-03-06T02:29:53.485Z,504.00
2023-03-06T02:30:53.561Z,511.00
2023-03-06T02:31:53.464Z,508.00
2023-03-06T02:32:53.456Z,513.00
2023-03-06T02:33:53.444Z,512.00
2023-03-06T02:34:53.444Z,507.00
2023-03-06T02:35:53.482Z,513.00
2023-03-06T02:36:53.413Z,509.00
2023-03-06T02:37:53.412Z,508.00
2023-03-06T02:38:53.398Z,510.00
2023-03-06T02:39:53.392Z,513.00
2023-03-06T02:40:53.387Z,505.00
2023-03-06T02:42:53.393Z,511.00
2023-03-06T02:43:53.351Z,511.00
2023-03-06T02:44:53.705Z,510.00
2023-03-06T02:45:53.415Z,513.00
2023-03-06T02:46:53.359Z,515.00
2023-03-06T02:47:53.362Z,516.00
2023-03-06T02:48:53.303Z,513.00
2023-03-06T02:49:53.313Z,512.00
2023-03-06T02:50:53.296Z,509.00
2023-03-06T02:51:53.272Z,513.00
2023-03-06T02:52:53.282Z,512.00
2023-03-06T02:53:53.266Z,508.00
2023-03-06T02:54:53.251Z,508.00
2023-03-06T02:55:53.235Z,508.00
2023-03-06T02:56:53.244Z,506.00
2023-03-06T02:57:53.244Z,512.00
2023-03-06T02:58:53.209Z,511.00
2023-03-06T02:59:53.224Z,507.00
2023-03-06T03:00:53.203Z,513.00
2023-03-06T03:01:53.238Z,513.00
2023-03-06T03:02:53.213Z,512.00
2023-03-06T03:03:53.159Z,512.00
2023-03-06T03:04:53.246Z,515.00
2023-03-06T03:05:53.142Z,510.00
2023-03-06T03:06:53.136Z,514.00
2023-03-06T03:07:53.130Z,508.00
2023-03-06T03:08:53.135Z,514.00
2023-03-06T03:09:53.112Z,510.00
2023-03-06T03:10:53.137Z,511.00
2023-03-06T03:11:53.105Z,510.00
2023-03-06T03:12:53.090Z,509.00
2023-03-06T03:13:53.074Z,515.00
2023-03-06T03:14:53.062Z,509.00
2023-03-06T03:15:53.140Z,512.00
2023-03-06T03:16:53.043Z,515.00
2023-03-06T03:17:53.034Z,512.00
2023-03-06T03:18:53.074Z,511.00
2023-03-06T03:19:53.012Z,514.00
2023-03-06T03:20:53.008Z,513.00
2023-03-06T03:21:53.700Z,505.00
2023-03-06T03:22:53.003Z,514.00
2023-03-06T03:23:52.994Z,510.00
2023-03-06T03:24:53.101Z,512.00
2023-03-06T03:25:52.963Z,512.00
2023-03-06T03:26:52.961Z,513.00
2023-03-06T03:27:52.950Z,515.00
2023-03-06T03:28:52.941Z,516.00
2023-03-06T03:29:52.940Z,509.00
2023-03-06T03:30:53.050Z,509.00
2023-03-06T03:31:52.918Z,516.00
2023-03-06T03:32:52.901Z,514.00
2023-03-06T03:33:52.893Z,508.00
2023-03-06T03:34:52.905Z,506.00
2023-03-06T03:35:52.907Z,512.00
2023-03-06T03:36:52.865Z,509.00
2023-03-06T03:37:52.868Z,510.00
2023-03-06T03:38:52.850Z,514.00
2023-03-06T03:39:52.838Z,511.00
2023-03-06T03:40:52.826Z,508.00
2023-03-06T03:41:52.843Z,508.00
2023-03-06T03:42:52.813Z,512.00
2023-03-06T03:43:52.811Z,509.00
2023-03-06T03:44:52.810Z,516.00
2023-03-06T03:45:52.786Z,507.00
2023-03-06T03:46:52.776Z,510.00
2023-03-06T03:47:52.763Z,512.00
2023-03-06T03:48:52.761Z,508.00
2023-03-06T03:49:52.741Z,512.00
2023-03-06T03:50:52.761Z,510.00
2023-03-06T03:51:52.729Z,511.00
2023-03-06T03:52:52.723Z,509.00
2023-03-06T03:53:52.711Z,505.00
2023-03-06T03:54:52.695Z,512.00
2023-03-06T03:55:52.690Z,511.00
2023-03-06T03:56:52.681Z,514.00
2023-03-06T03:57:53.209Z,510.00
2023-03-06T03:58:52.659Z,513.00
2023-03-06T03:59:52.655Z,510.00
2023-03-06T04:00:52.646Z,510.00
2023-03-06T04:01:52.694Z,509.00
2023-03-06T04:02:52.629Z,513.00
2023-03-06T04:03:52.616Z,510.00
2023-03-06T04:04:52.673Z,512.00
2023-03-06T04:05:52.592Z,511.00
2023-03-06T04:06:52.609Z,507.00
2023-03-06T04:07:52.587Z,508.00
2023-03-06T04:08:52.561Z,511.00
2023-03-06T04:09:52.552Z,511.00
2023-03-06T04:10:52.555Z,512.00
2023-03-06T04:11:52.543Z,509.00
2023-03-06T04:12:52.543Z,510.00
2023-03-06T04:13:52.523Z,511.00
2023-03-06T04:14:52.568Z,513.00
2023-03-06T04:15:52.539Z,512.00
2023-03-06T04:16:52.507Z,509.00
2023-03-06T04:17:52.480Z,515.00
2023-03-06T04:18:52.484Z,506.00
2023-03-06T04:19:52.483Z,509.00
2023-03-06T04:20:52.454Z,514.00
2023-03-06T04:21:52.442Z,518.00
2023-03-06T04:22:52.460Z,511.00
2023-03-06T04:23:53.218Z,512.00
2023-03-06T04:24:52.420Z,518.00
2023-03-06T04:25:52.415Z,510.00
2023-03-06T04:26:52.399Z,510.00
2023-03-06T04:27:52.389Z,511.00
2023-03-06T04:28:52.398Z,513.00
2023-03-06T04:29:52.375Z,515.00
2023-03-06T04:30:52.367Z,511.00
2023-03-06T04:31:52.355Z,510.00
2023-03-06T04:32:52.347Z,515.00
2023-03-06T04:33:52.334Z,513.00
2023-03-06T04:34:52.330Z,514.00
2023-03-06T04:35:52.376Z,512.00
2023-03-06T04:36:52.311Z,513.00
2023-03-06T04:37:52.297Z,512.00
2023-03-06T04:38:52.383Z,512.00
2023-03-06T04:39:52.284Z,512.00
2023-03-06T04:40:52.274Z,512.00
2023-03-06T04:41:52.264Z,516.00
2023-03-06T04:42:52.252Z,514.00
2023-03-06T04:43:52.248Z,514.00
2023-03-06T04:44:52.241Z,514.00
2023-03-06T04:45:52.310Z,509.00
2023-03-06T04:46:52.225Z,516.00
2023-03-06T04:47:52.209Z,517.00
2023-03-06T04:48:52.217Z,513.00
2023-03-06T04:49:52.191Z,517.00
2023-03-06T04:50:52.188Z,512.00
2023-03-06T04:51:52.181Z,511.00
2023-03-06T04:52:52.172Z,510.00
2023-03-06T04:53:52.151Z,512.00
2023-03-06T04:54:52.265Z,513.00
2023-03-06T04:55:52.138Z,510.00
2023-03-06T04:56:52.127Z,517.00
2023-03-06T04:57:52.122Z,514.00
2023-03-06T04:58:52.126Z,512.00
2023-03-06T04:59:52.094Z,512.00
2023-03-06T05:00:52.099Z,512.00
2023-03-06T05:01:52.184Z,517.00
2023-03-06T05:02:52.087Z,511.00
2023-03-06T05:03:52.734Z,511.00
2023-03-06T05:04:52.053Z,512.00
2023-03-06T05:05:52.038Z,509.00
2023-03-06T05:06:52.036Z,511.00
2023-03-06T05:07:52.020Z,513.00
2023-03-06T05:08:52.012Z,510.00
2023-03-06T05:09:52.003Z,512.00
2023-03-06T05:10:52.018Z,509.00
2023-03-06T05:11:51.984Z,512.00
2023-03-06T05:12:51.991Z,511.00
2023-03-06T05:13:51.973Z,510.00
2023-03-06T05:14:51.951Z,513.00
2023-03-06T05:15:51.942Z,513.00
2023-03-06T05:16:51.937Z,512.00
2023-03-06T05:17:51.921Z,514.00
2023-03-06T05:18:51.928Z,515.00
2023-03-06T05:19:51.915Z,515.00
2023-03-06T05:20:51.908Z,516.00
2023-03-06T05:21:51.884Z,514.00
2023-03-06T05:22:51.871Z,517.00
2023-03-06T05:23:52.749Z,510.00
2023-03-06T05:24:51.862Z,514.00
2023-03-06T05:25:51.852Z,518.00
2023-03-06T05:26:51.898Z,520.00
2023-03-06T05:27:51.846Z,514.00
2023-03-06T05:28:51.829Z,511.00
2023-03-06T05:29:51.814Z,513.00
2023-03-06T05:30:51.813Z,514.00
2023-03-06T05:31:51.854Z,509.00
2023-03-06T05:32:51.842Z,510.00
2023-03-06T05:33:52.813Z,513.00
2023-03-06T05:34:51.798Z,516.00
2023-03-06T05:35:51.961Z,517.00
2023-03-06T05:36:51.756Z,514.00
2023-03-06T05:37:51.769Z,517.00
2023-03-06T05:38:51.736Z,522.00
2023-03-06T05:39:51.722Z,517.00
2023-03-06T05:40:51.721Z,512.00
2023-03-06T05:41:51.711Z,514.00
2023-03-06T05:42:51.734Z,516.00
2023-03-06T05:43:51.693Z,518.00
2023-03-06T05:44:51.718Z,516.00
2023-03-06T05:45:51.777Z,521.00
2023-03-06T05:46:51.669Z,514.00
2023-03-06T05:47:51.664Z,512.00
2023-03-06T05:48:51.651Z,518.00
2023-03-06T05:49:51.636Z,517.00
2023-03-06T05:50:51.631Z,515.00
2023-03-06T05:51:51.618Z,513.00
2023-03-06T05:52:52.252Z,514.00
2023-03-06T05:53:51.618Z,511.00
2023-03-06T05:54:51.616Z,517.00
2023-03-06T05:55:51.578Z,512.00
2023-03-06T05:56:51.575Z,514.00
2023-03-06T05:57:51.568Z,516.00
2023-03-06T05:58:51.587Z,516.00
2023-03-06T05:59:51.564Z,513.00
2023-03-06T06:00:51.530Z,515.00
2023-03-06T06:01:51.522Z,513.00
2023-03-06T06:02:51.527Z,514.00
2023-03-06T06:03:51.830Z,517.00
2023-03-06T06:04:51.498Z,514.00
2023-03-06T06:05:51.490Z,511.00
2023-03-06T06:06:51.473Z,514.00
2023-03-06T06:08:51.460Z,512.00
2023-03-06T06:09:51.454Z,512.00
2023-03-06T06:10:53.383Z,512.00
2023-03-06T06:11:51.433Z,512.00
2023-03-06T06:12:51.425Z,513.00
2023-03-06T06:13:51.415Z,514.00
2023-03-06T06:14:51.576Z,517.00
2023-03-06T06:15:51.417Z,516.00
2023-03-06T06:16:51.385Z,516.00
2023-03-06T06:17:51.376Z,510.00
2023-03-06T06:18:51.381Z,514.00
2023-03-06T06:19:51.365Z,510.00
2023-03-06T06:20:51.376Z,514.00
2023-03-06T06:21:51.334Z,518.00
2023-03-06T06:22:51.768Z,514.00
2023-03-06T06:23:51.318Z,519.00
2023-03-06T06:24:51.306Z,527.00
2023-03-06T06:25:51.309Z,523.00
2023-03-06T06:26:51.293Z,528.00
2023-03-06T06:27:51.286Z,528.00
2023-03-06T06:28:51.765Z,530.00
2023-03-06T06:29:51.325Z,533.00
2023-03-06T06:30:51.314Z,526.00
2023-03-06T06:31:51.261Z,525.00
2023-03-06T06:32:51.239Z,528.00
2023-03-06T06:33:51.238Z,530.00
2023-03-06T06:34:51.242Z,529.00
2023-03-06T06:35:51.262Z,526.00
2023-03-06T06:36:53.342Z,529.00
2023-03-06T06:37:51.190Z,529.00
2023-03-06T06:38:51.182Z,531.00
2023-03-06T06:39:51.190Z,530.00
2023-03-06T06:41:26.721Z,533.00
2023-03-06T06:42:05.578Z,530.00
2023-03-06T06:42:51.151Z,531.00
2023-03-06T06:43:51.281Z,533.00
2023-03-06T06:44:51.155Z,536.00
2023-03-06T06:45:51.541Z,538.00
2023-03-06T06:47:51.204Z,530.00
2023-03-06T06:48:51.113Z,532.00
2023-03-06T06:49:51.328Z,537.00
2023-03-06T06:50:51.074Z,541.00
2023-03-06T06:51:51.276Z,548.00
2023-03-06T06:52:51.065Z,550.00
2023-03-06T06:55:06.898Z,548.00
2023-03-06T06:55:51.057Z,549.00
2023-03-06T06:57:51.051Z,549.00
2023-03-06T06:58:51.016Z,553.00
2023-03-06T06:59:53.836Z,559.00
2023-03-06T07:00:51.136Z,549.00
2023-03-06T07:01:51.928Z,553.00
2023-03-06T07:02:50.988Z,559.00
2023-03-06T07:03:51.008Z,574.00
2023-03-06T07:05:03.009Z,591.00
2023-03-06T07:05:50.958Z,550.00
2023-03-06T07:06:51.285Z,558.00
2023-03-06T07:07:50.931Z,572.00
2023-03-06T07:08:50.910Z,596.00
2023-03-06T07:09:50.905Z,625.00
2023-03-06T07:10:50.962Z,620.00
2023-03-06T07:11:51.300Z,636.00
2023-03-06T07:12:50.866Z,640.00
2023-03-06T07:13:50.860Z,639.00
2023-03-06T07:14:50.855Z,647.00
2023-03-06T07:15:50.880Z,652.00
2023-03-06T07:16:51.283Z,654.00
2023-03-06T07:17:51.305Z,661.00
2023-03-06T07:18:50.848Z,680.00
2023-03-06T07:19:50.809Z,672.00
2023-03-06T07:20:51.289Z,696.00
2023-03-06T07:21:50.785Z,700.00
2023-03-06T07:22:51.957Z,711.00
2023-03-06T07:23:50.767Z,739.00
2023-03-06T07:24:50.760Z,731.00
2023-03-06T07:25:50.804Z,731.00
2023-03-06T07:26:50.734Z,738.00
2023-03-06T07:27:53.758Z,742.00
2023-03-06T07:28:52.937Z,743.00
2023-03-06T07:29:50.715Z,744.00
2023-03-06T07:30:50.792Z,749.00
2023-03-06T07:31:50.697Z,757.00
2023-03-06T07:32:50.685Z,774.00
2023-03-06T07:33:50.749Z,779.00
2023-03-06T07:34:50.703Z,809.00
2023-03-06T07:35:50.816Z,792.00
2023-03-06T07:36:50.663Z,816.00
2023-03-06T07:37:50.795Z,830.00
2023-03-06T07:38:50.670Z,829.00
2023-03-06T07:39:50.797Z,836.00
2023-03-06T07:40:50.613Z,831.00
2023-03-06T07:41:50.604Z,850.00
2023-03-06T07:42:50.637Z,860.00
2023-03-06T07:43:50.582Z,861.00
2023-03-06T07:44:50.897Z,861.00
2023-03-06T07:45:50.572Z,875.00
2023-03-06T07:46:50.660Z,878.00
2023-03-06T07:47:50.818Z,859.00
2023-03-06T07:48:51.178Z,890.00
2023-03-06T07:49:51.790Z,886.00
2023-03-06T07:50:50.609Z,918.00
2023-03-06T07:51:50.510Z,890.00
2023-03-06T07:52:50.510Z,899.00
2023-03-06T07:53:50.620Z,919.00
2023-03-06T07:54:51.320Z,917.00
2023-03-06T07:55:50.489Z,922.00
2023-03-06T07:56:50.466Z,922.00
2023-03-06T07:57:50.831Z,922.00
2023-03-06T07:58:50.475Z,930.00
2023-03-06T07:59:50.452Z,939.00
2023-03-06T08:00:50.821Z,945.00
2023-03-06T08:01:50.468Z,937.00
2023-03-06T08:02:50.826Z,957.00
2023-03-06T08:03:50.558Z,965.00
2023-03-06T08:04:50.391Z,956.00
2023-03-06T08:05:50.412Z,951.00
2023-03-06T08:07:50.816Z,971.00
2023-03-06T08:08:50.360Z,973.00
2023-03-06T08:09:50.378Z,971.00
2023-03-06T08:10:50.383Z,978.00
2023-03-06T08:11:50.336Z,979.00
2023-03-06T08:12:50.856Z,984.00
2023-03-06T08:13:50.322Z,981.00
2023-03-06T08:14:50.329Z,980.00
2023-03-06T08:15:50.360Z,987.00
2023-03-06T08:16:50.339Z,977.00
2023-03-06T08:17:50.304Z,996.00
2023-03-06T08:18:50.301Z,995.00
2023-03-06T08:19:50.274Z,1005.00
2023-03-06T08:20:50.273Z,1001.00
2023-03-06T08:22:50.367Z,1000.00
2023-03-06T08:23:50.253Z,1002.00
2023-03-06T08:24:50.226Z,992.00
2023-03-06T08:25:50.377Z,1004.00
2023-03-06T08:26:50.219Z,1012.00
2023-03-06T08:27:50.206Z,1001.00
2023-03-06T08:28:50.351Z,1007.00
2023-03-06T08:29:50.189Z,1009.00
2023-03-06T08:30:50.176Z,1018.00
2023-03-06T08:31:50.222Z,1004.00
2023-03-06T08:32:50.338Z,1022.00
2023-03-06T08:33:50.157Z,1010.00
2023-03-06T08:34:50.142Z,1015.00
2023-03-06T08:35:50.207Z,1058.00
2023-03-06T08:36:50.160Z,1071.00
2023-03-06T08:37:50.328Z,1057.00
2023-03-06T08:38:50.096Z,1059.00
2023-03-06T08:39:50.105Z,1058.00
2023-03-06T08:40:50.316Z,1069.00
2023-03-06T08:41:51.054Z,1107.00
2023-03-06T08:42:50.041Z,1098.00
2023-03-06T08:43:50.313Z,1092.00
2023-03-06T08:44:50.027Z,1100.00
2023-03-06T08:45:50.043Z,1262.00
2023-03-06T08:46:50.347Z,1259.00
2023-03-06T08:47:49.997Z,1196.00
2023-03-06T08:48:50.848Z,1166.00
2023-03-06T08:49:50.321Z,1160.00
2023-03-06T08:50:53.214Z,1159.00
2023-03-06T08:51:49.960Z,1160.00
2023-03-06T08:52:50.859Z,1160.00
2023-03-06T08:53:53.538Z,1166.00
2023-03-06T08:54:49.933Z,1160.00
2023-03-06T08:55:49.949Z,1162.00
2023-03-06T08:56:53.106Z,1169.00
2023-03-06T08:57:49.913Z,1160.00
2023-03-06T08:58:50.337Z,1163.00
2023-03-06T08:59:49.884Z,1168.00
2023-03-06T09:00:49.991Z,1173.00
2023-03-06T09:01:49.867Z,1181.00
2023-03-06T09:02:49.871Z,1178.00
2023-03-06T09:03:50.320Z,1172.00
2023-03-06T09:05:49.847Z,1186.00
2023-03-06T09:06:49.825Z,1187.00
2023-03-06T09:07:49.821Z,1190.00
2023-03-06T09:08:49.821Z,1189.00
2023-03-06T09:09:49.839Z,1181.00
2023-03-06T09:10:49.855Z,1167.00
2023-03-06T09:11:49.905Z,1176.00
2023-03-06T09:12:52.071Z,1166.00
2023-03-06T09:13:49.768Z,1168.00
2023-03-06T09:14:49.766Z,1169.00
2023-03-06T09:15:49.753Z,1170.00
2023-03-06T09:16:49.810Z,1168.00
2023-03-06T09:17:49.795Z,1165.00
2023-03-06T09:18:49.827Z,1177.00
2023-03-06T09:19:49.721Z,1169.00
2023-03-06T09:20:49.713Z,1162.00
2023-03-06T09:22:49.693Z,1159.00
2023-03-06T09:23:49.832Z,1159.00
2023-03-06T09:24:49.706Z,1156.00
2023-03-06T09:25:49.853Z,1149.00
2023-03-06T09:26:51.581Z,1144.00
2023-03-06T09:27:58.319Z,1152.00
2023-03-06T09:28:49.640Z,1155.00
2023-03-06T09:29:49.830Z,1159.00
2023-03-06T09:30:49.633Z,1159.00
2023-03-06T09:31:49.643Z,1163.00
2023-03-06T09:32:49.835Z,1152.00
2023-03-06T09:33:49.626Z,1143.00
2023-03-06T09:34:49.610Z,1145.00
2023-03-06T09:36:56.719Z,1138.00
2023-03-06T09:37:49.576Z,1140.00
2023-03-06T09:38:49.561Z,1142.00
2023-03-06T09:39:49.836Z,1143.00
2023-03-06T09:40:49.546Z,1143.00
2023-03-06T09:41:49.909Z,1147.00
2023-03-06T09:42:49.538Z,1149.00
2023-03-06T09:43:49.534Z,1146.00
2023-03-06T09:44:49.860Z,1153.00
2023-03-06T09:46:49.878Z,1142.00
2023-03-06T09:47:49.483Z,1130.00
2023-03-06T09:48:49.493Z,1094.00
2023-03-06T09:49:49.843Z,1071.00
2023-03-06T09:50:49.490Z,1043.00
2023-03-06T09:51:50.333Z,881.00
2023-03-06T09:52:49.443Z,773.00
2023-03-06T09:53:49.855Z,700.00
2023-03-06T09:54:49.454Z,689.00
2023-03-06T09:55:49.423Z,712.00
2023-03-06T09:56:49.836Z,666.00
2023-03-06T09:57:51.157Z,650.00
2023-03-06T09:59:49.374Z,638.00
2023-03-06T10:00:49.363Z,606.00
2023-03-06T10:02:49.489Z,586.00
2023-03-06T10:03:49.333Z,570.00
2023-03-06T10:04:49.445Z,549.00
2023-03-06T10:06:49.319Z,543.00
2023-03-06T10:07:49.303Z,537.00
2023-03-06T10:08:49.304Z,511.00
2023-03-06T10:09:49.341Z,511.00
2023-03-06T10:10:49.271Z,501.00
2023-03-06T10:11:49.619Z,499.00
2023-03-06T10:12:49.343Z,500.00
2023-03-06T10:13:49.892Z,500.00
2023-03-06T10:14:49.465Z,509.00
2023-03-06T10:15:49.275Z,510.00
2023-03-06T10:16:49.218Z,506.00
2023-03-06T10:17:49.436Z,500.00
2023-03-06T10:18:49.199Z,503.00
2023-03-06T10:19:49.190Z,501.00
2023-03-06T10:20:49.810Z,502.00
2023-03-06T10:21:49.187Z,505.00
2023-03-06T10:23:00.772Z,504.00
2023-03-06T10:23:49.179Z,505.00
2023-03-06T10:24:49.200Z,505.00
2023-03-06T10:26:49.300Z,508.00
2023-03-06T10:27:49.277Z,514.00
2023-03-06T10:28:49.133Z,503.00
2023-03-06T10:30:01.598Z,502.00
2023-03-06T10:30:49.457Z,502.00
2023-03-06T10:31:49.683Z,501.00
2023-03-06T10:32:49.680Z,486.00
2023-03-06T10:33:49.401Z,482.00
2023-03-06T10:34:49.090Z,464.00
2023-03-06T10:35:49.103Z,500.00
2023-03-06T10:37:49.053Z,505.00
2023-03-06T10:38:49.074Z,505.00
2023-03-06T10:39:49.111Z,503.00
2023-03-06T10:40:49.001Z,498.00
2023-03-06T10:41:49.001Z,493.00
2023-03-06T10:42:56.065Z,505.00
2023-03-06T10:43:48.968Z,505.00
2023-03-06T10:44:49.010Z,490.00
2023-03-06T10:45:49.865Z,483.00
2023-03-06T10:46:49.126Z,494.00
2023-03-06T10:48:49.463Z,492.00
2023-03-06T10:49:48.913Z,493.00
2023-03-06T10:50:48.924Z,487.00
2023-03-06T10:51:48.984Z,484.00
2023-03-06T10:52:49.362Z,481.00
2023-03-06T10:53:49.393Z,500.00
2023-03-06T10:54:48.873Z,500.00
2023-03-06T10:55:48.859Z,500.00
2023-03-06T10:56:48.857Z,509.00
2023-03-06T10:57:48.864Z,511.00
2023-03-06T10:58:48.832Z,515.00
2023-03-06T10:59:48.863Z,515.00
2023-03-06T11:00:48.813Z,527.00
2023-03-06T11:01:48.998Z,526.00
2023-03-06T11:02:48.869Z,523.00
2023-03-06T11:03:48.866Z,521.00
2023-03-06T11:04:48.840Z,515.00
2023-03-06T11:05:48.783Z,505.00
2023-03-06T11:06:48.913Z,500.00
2023-03-06T11:07:48.751Z,502.00
2023-03-06T11:08:48.749Z,501.00
2023-03-06T11:09:48.726Z,505.00
2023-03-06T11:10:48.877Z,500.00
2023-03-06T11:11:48.711Z,501.00
2023-03-06T11:12:48.737Z,506.00
2023-03-06T11:13:48.689Z,500.00
2023-03-06T11:14:48.751Z,507.00
2023-03-06T11:15:48.967Z,516.00
2023-03-06T11:16:48.873Z,500.00
2023-03-06T11:17:48.675Z,500.00
2023-03-06T11:18:48.873Z,503.00
2023-03-06T11:19:48.634Z,502.00
2023-03-06T11:20:52.332Z,507.00
2023-03-06T11:21:48.628Z,508.00
2023-03-06T11:22:49.312Z,486.00
2023-03-06T11:23:49.441Z,400.00
2023-03-06T11:24:48.601Z,400.00
2023-03-06T11:25:48.578Z,400.00
2023-03-06T11:26:50.960Z,401.00
2023-03-06T11:27:48.558Z,401.00
2023-03-06T11:28:48.940Z,401.00
2023-03-06T11:29:48.560Z,401.00
2023-03-06T11:30:49.102Z,403.00
2023-03-06T11:31:48.868Z,414.00
2023-03-06T11:32:50.780Z,474.00
2023-03-06T11:33:49.128Z,474.00
2023-03-06T11:34:50.592Z,476.00
2023-03-06T11:35:48.530Z,475.00
2023-03-06T11:36:48.477Z,475.00
2023-03-06T11:37:48.881Z,478.00
2023-03-06T11:38:48.455Z,470.00
2023-03-06T11:39:48.537Z,472.00
2023-03-06T11:40:48.462Z,518.00
2023-03-06T11:41:48.432Z,553.00
2023-03-06T11:42:48.882Z,549.00
2023-03-06T11:43:48.419Z,567.00
2023-03-06T11:44:48.408Z,584.00
2023-03-06T11:45:48.395Z,597.00
2023-03-06T11:46:48.903Z,630.00
2023-03-06T11:47:48.376Z,639.00
2023-03-06T11:48:48.865Z,642.00
2023-03-06T11:49:48.801Z,659.00
2023-03-06T11:50:48.346Z,694.00
2023-03-06T11:51:48.377Z,710.00
2023-03-06T11:52:48.378Z,770.00
2023-03-06T11:53:48.323Z,763.00
2023-03-06T11:54:48.312Z,777.00
2023-03-06T11:55:48.390Z,825.00
2023-03-06T11:56:48.390Z,844.00
2023-03-06T11:57:48.297Z,879.00
2023-03-06T11:58:48.281Z,898.00
2023-03-06T11:59:48.264Z,918.00
2023-03-06T12:01:48.311Z,928.00
2023-03-06T12:02:48.238Z,939.00
2023-03-06T12:03:48.388Z,969.00
2023-03-06T12:04:48.223Z,1019.00
2023-03-06T12:05:48.266Z,1097.00
2023-03-06T12:06:48.203Z,1131.00
2023-03-06T12:07:48.201Z,1163.00
2023-03-06T12:08:48.393Z,1195.00
2023-03-06T12:09:48.389Z,1230.00
2023-03-06T12:10:51.725Z,1222.00
2023-03-06T12:11:48.152Z,1224.00
2023-03-06T12:12:48.149Z,1230.00
2023-03-06T12:13:48.901Z,1253.00
2023-03-06T12:14:48.367Z,1300.00
2023-03-06T12:15:48.117Z,1346.00
2023-03-06T12:16:48.158Z,1387.00
2023-03-06T12:17:48.099Z,1402.00
2023-03-06T12:18:48.388Z,1398.00
2023-03-06T12:19:48.407Z,1371.00
2023-03-06T12:20:48.400Z,1169.00
2023-03-06T12:21:48.091Z,950.00
2023-03-06T12:22:58.166Z,765.00
2023-03-06T12:23:48.052Z,760.00
2023-03-06T12:24:48.032Z,771.00
2023-03-06T12:25:48.024Z,796.00
2023-03-06T12:26:48.017Z,857.00
2023-03-06T12:27:48.002Z,1076.00
2023-03-06T12:28:47.997Z,1070.00
2023-03-06T12:29:48.406Z,1099.00
2023-03-06T12:30:47.980Z,1139.00
2023-03-06T12:31:48.039Z,1213.00
2023-03-06T12:32:48.009Z,1252.00
2023-03-06T12:33:47.950Z,1291.00
2023-03-06T12:34:48.404Z,1302.00
2023-03-06T12:35:47.979Z,1321.00
2023-03-06T12:36:47.928Z,1362.00
2023-03-06T12:37:48.469Z,1403.00
2023-03-06T12:38:47.910Z,1399.00
2023-03-06T12:39:47.892Z,1445.00
2023-03-06T12:40:47.991Z,1441.00
2023-03-06T12:41:47.881Z,1474.00
2023-03-06T12:42:47.876Z,1491.00
2023-03-06T12:43:47.857Z,1504.00
2023-03-06T12:44:48.034Z,1519.00
2023-03-06T12:45:47.851Z,1528.00
2023-03-06T12:46:47.828Z,1527.00
2023-03-06T12:47:47.827Z,1535.00
2023-03-06T12:48:48.422Z,1546.00
2023-03-06T12:49:48.520Z,1564.00
2023-03-06T12:50:47.908Z,1579.00
2023-03-06T12:51:47.793Z,1583.00
2023-03-06T12:52:47.906Z,1589.00
2023-03-06T12:53:47.803Z,1582.00
2023-03-06T12:54:47.766Z,1612.00
2023-03-06T12:55:47.950Z,1605.00
2023-03-06T12:56:47.749Z,1622.00
2023-03-06T12:57:47.734Z,1611.00
2023-03-06T12:58:47.732Z,1623.00
2023-03-06T12:59:47.735Z,1623.00
2023-03-06T13:00:52.418Z,1639.00
2023-03-06T13:01:47.762Z,1641.00
2023-03-06T13:02:48.422Z,1644.00
2023-03-06T13:03:47.688Z,1649.00
2023-03-06T13:04:47.675Z,1662.00
2023-03-06T13:05:47.666Z,1667.00
2023-03-06T13:06:50.835Z,1686.00
2023-03-06T13:07:47.913Z,1687.00
2023-03-06T13:08:47.877Z,1683.00
2023-03-06T13:09:47.670Z,1690.00
2023-03-06T13:10:48.422Z,1689.00
2023-03-06T13:11:47.625Z,1701.00
2023-03-06T13:12:47.913Z,1690.00
2023-03-06T13:13:47.618Z,1698.00
2023-03-06T13:14:54.082Z,1698.00
2023-03-06T13:15:47.588Z,1700.00
2023-03-06T13:16:47.604Z,1702.00
2023-03-06T13:17:47.594Z,1708.00
2023-03-06T13:18:47.923Z,1718.00
2023-03-06T13:19:47.550Z,1723.00
2023-03-06T13:20:47.546Z,1723.00
2023-03-06T13:21:47.918Z,1730.00
2023-03-06T13:22:47.543Z,1738.00
2023-03-06T13:23:47.533Z,1724.00
2023-03-06T13:24:48.335Z,1728.00
2023-03-06T13:25:47.583Z,1729.00
2023-03-06T13:26:47.922Z,1732.00
2023-03-06T13:27:47.480Z,1734.00
2023-03-06T13:28:47.484Z,1740.00
2023-03-06T13:29:47.917Z,1732.00
2023-03-06T13:30:47.484Z,1742.00
2023-03-06T13:31:47.463Z,1746.00